Time;durP1;ratioP1;P1;durP2;ratioP2;P2;SDS_P1;SDS_P2;PMS_P1;PMS_P2;Temp;Humidity;BMP_temperature;BMP_pressure;BME280_temperature;BME280_humidity;BME280_pressure;Samples;Min_cycle;Max_cycle;Signal;HPM_P1;HPM_P2
2022/08/27 00:00:56;;;;;;;12.18;7.93;;;;;;;-145.69;100.00;70765.69;5073330;28;20209;-78
2022/08/27 00:03:22;;;;;;;11.45;7.78;;;;;;;-145.69;100.00;70765.69;5073048;28;20657;-77
2022/08/27 00:05:48;;;;;;;11.35;7.90;;;;;;;-145.69;100.00;70753.75;5073121;28;20206;-77
2022/08/27 00:08:15;;;;;;;12.40;7.43;;;;;;;-145.69;100.00;70757.72;5073008;28;20210;-77
2022/08/27 00:10:41;;;;;;;14.23;7.95;;;;;;;-145.69;100.00;70763.69;5068824;28;20646;-76
2022/08/27 00:13:08;;;;;;;15.18;8.13;;;;;;;-145.69;100.00;70757.72;5072846;28;20202;-76
2022/08/27 00:15:35;;;;;;;11.98;7.32;;;;;;;-145.69;100.00;70757.72;5072977;28;20203;-78
2022/08/27 00:18:04;;;;;;;9.85;7.38;;;;;;;-145.69;100.00;70749.78;5072851;28;20226;-77
2022/08/27 00:20:31;;;;;;;12.32;7.63;;;;;;;-145.69;100.00;70753.75;5072977;28;20293;-75
2022/08/27 00:22:57;;;;;;;9.65;6.78;;;;;;;-145.69;100.00;70745.78;5072875;28;20202;-76
2022/08/27 00:25:24;;;;;;;13.23;7.13;;;;;;;-145.69;100.00;70749.78;5073059;28;20194;-74
2022/08/27 00:27:51;;;;;;;11.13;6.68;;;;;;;-145.69;100.00;70751.75;5072939;28;20210;-76
2022/08/27 00:30:19;;;;;;;11.25;7.18;;;;;;;-145.69;100.00;70749.78;5071989;28;20206;-76
2022/08/27 00:32:47;;;;;;;11.68;7.25;;;;;;;-145.69;100.00;70747.78;5072523;28;20210;-78
2022/08/27 00:35:15;;;;;;;11.40;7.45;;;;;;;-145.69;100.00;70749.78;5071653;28;20218;-76
2022/08/27 00:37:43;;;;;;;13.02;7.80;;;;;;;-145.69;100.00;70751.75;5072823;28;20226;-76
2022/08/27 00:40:13;;;;;;;9.65;7.05;;;;;;;-145.69;100.00;70749.78;5070742;28;20186;-77
2022/08/27 00:42:41;;;;;;;11.07;6.97;;;;;;;-145.69;100.00;70757.72;5074073;28;20191;-76
2022/08/27 00:45:08;;;;;;;11.60;7.03;;;;;;;-145.69;100.00;70759.72;5076639;28;20198;-76
2022/08/27 00:47:42;;;;;;;11.00;7.88;;;;;;;-145.69;100.00;70757.72;5076540;28;20249;-76
2022/08/27 00:50:12;;;;;;;13.02;8.65;;;;;;;-145.69;100.00;70759.72;5076491;28;20225;-78
2022/08/27 00:52:46;;;;;;;12.82;8.38;;;;;;;-145.69;100.00;70757.72;5075589;28;20207;-78
2022/08/27 00:55:18;;;;;;;14.20;8.30;;;;;;;-145.69;100.00;70759.72;5076456;28;20206;-78
2022/08/27 00:57:50;;;;;;;12.52;7.60;;;;;;;-145.69;100.00;70759.72;5075885;28;20237;-75
2022/08/27 01:00:19;;;;;;;12.32;7.35;;;;;;;-145.69;100.00;70763.69;5075847;28;20203;-77
2022/08/27 01:02:46;;;;;;;15.20;8.40;;;;;;;-145.69;100.00;70759.72;5075891;28;20209;-76
2022/08/27 01:05:19;;;;;;;14.65;8.73;;;;;;;-145.69;100.00;70765.69;5074135;28;20214;-76
2022/08/27 01:07:51;;;;;;;11.35;7.72;;;;;;;-145.69;100.00;70767.69;5076354;28;20211;-75
2022/08/27 01:10:22;;;;;;;13.45;8.55;;;;;;;-145.69;100.00;70765.69;5075735;28;20191;-77
2022/08/27 01:12:51;;;;;;;14.80;8.05;;;;;;;-145.69;100.00;70767.69;5076171;28;20688;-76
2022/08/27 01:15:19;;;;;;;15.48;8.27;;;;;;;-145.69;100.00;70761.72;5074139;28;20257;-77
2022/08/27 01:17:46;;;;;;;13.55;7.65;;;;;;;-145.69;100.00;70757.72;5066660;28;20270;-77
2022/08/27 01:20:17;;;;;;;12.73;7.72;;;;;;;-145.69;100.00;70757.72;5056147;28;20211;-76
2022/08/27 01:22:53;;;;;;;12.63;8.13;;;;;;;-145.69;100.00;70759.72;5056079;28;20195;-76
2022/08/27 01:25:22;;;;;;;15.48;8.48;;;;;;;-145.69;100.00;70757.72;5055926;28;20248;-76
2022/08/27 01:27:50;;;;;;;13.27;8.00;;;;;;;-145.69;100.00;70757.72;5055975;28;20235;-77
2022/08/27 01:30:19;;;;;;;10.70;7.05;;;;;;;-145.69;100.00;70753.75;5055935;28;20195;-77
2022/08/27 01:32:47;;;;;;;15.15;7.90;;;;;;;-145.69;100.00;70753.75;5055824;28;20208;-76
2022/08/27 01:35:16;;;;;;;14.50;8.18;;;;;;;-145.69;100.00;70749.78;5055373;28;20233;-76
2022/08/27 01:37:46;;;;;;;12.13;7.35;;;;;;;-145.69;100.00;70747.78;5055426;28;20239;-75
2022/08/27 01:40:13;;;;;;;10.20;6.55;;;;;;;-145.69;100.00;70745.78;5062049;28;20191;-76
2022/08/27 01:42:44;;;;;;;10.85;6.97;;;;;;;-145.69;100.00;70741.81;5075784;28;20211;-75
2022/08/27 01:45:13;;;;;;;12.23;6.93;;;;;;;-145.69;100.00;70745.78;5075663;28;20198;-75
2022/08/27 01:47:40;;;;;;;12.25;7.57;;;;;;;-145.69;100.00;70745.78;5075380;28;20590;-75
2022/08/27 01:50:11;;;;;;;10.52;7.32;;;;;;;-145.69;100.00;70741.81;5075307;28;20210;-77
2022/08/27 01:52:37;;;;;;;9.68;7.00;;;;;;;-145.69;100.00;70737.84;5075605;28;20557;-76
2022/08/27 01:55:05;;;;;;;13.77;7.07;;;;;;;-145.69;100.00;70745.78;5075374;28;20203;-76
2022/08/27 01:57:34;;;;;;;10.57;6.70;;;;;;;-145.69;100.00;70753.75;5075348;28;20273;-76
2022/08/27 02:00:02;;;;;;;12.57;7.15;;;;;;;-145.69;100.00;70753.75;5075298;28;20221;-76
2022/08/27 02:02:28;;;;;;;12.90;7.10;;;;;;;-145.69;100.00;70749.78;5075277;28;20198;-75
2022/08/27 02:04:55;;;;;;;10.02;7.30;;;;;;;-145.69;100.00;70753.75;5075063;28;20205;-78
2022/08/27 02:07:21;;;;;;;12.32;7.30;;;;;;;-145.69;100.00;70753.75;5074911;28;20195;-76
2022/08/27 02:09:48;;;;;;;10.55;6.72;;;;;;;-145.69;100.00;70745.78;5071459;28;20214;-76
2022/08/27 02:12:14;;;;;;;10.30;6.18;;;;;;;-145.69;100.00;70745.78;5072808;28;20202;-76
2022/08/27 02:14:41;;;;;;;11.68;7.22;;;;;;;-145.69;100.00;70749.78;5073977;28;20202;-76
2022/08/27 02:17:09;;;;;;;12.30;7.63;;;;;;;-145.69;100.00;70749.78;5073698;28;20223;-76
2022/08/27 02:19:35;;;;;;;10.80;7.22;;;;;;;-145.69;100.00;70751.75;5075082;28;20236;-74
2022/08/27 02:22:02;;;;;;;8.77;7.20;;;;;;;-145.69;100.00;70761.72;5074903;28;20217;-76
2022/08/27 02:24:28;;;;;;;15.13;7.28;;;;;;;-145.69;100.00;70767.69;5074869;28;20194;-76
2022/08/27 02:26:55;;;;;;;11.93;7.60;;;;;;;-145.69;100.00;70773.66;5073759;28;20206;-78
2022/08/27 02:29:22;;;;;;;15.43;8.35;;;;;;;-145.69;100.00;70777.63;5074576;28;20569;-76
2022/08/27 02:31:49;;;;;;;12.52;8.45;;;;;;;-145.69;100.00;70781.59;5074253;28;20653;-76
2022/08/27 02:34:17;;;;;;;11.93;7.25;;;;;;;-145.69;100.00;70787.56;5074523;28;20252;-77
2022/08/27 02:36:44;;;;;;;16.15;9.00;;;;;;;-145.69;100.00;70799.50;5074257;28;20590;-77
2022/08/27 02:39:11;;;;;;;15.90;7.80;;;;;;;-145.69;100.00;70799.50;5074438;28;20198;-77
2022/08/27 02:41:37;;;;;;;14.05;7.72;;;;;;;-145.69;100.00;70805.47;5074475;28;20561;-78
2022/08/27 02:44:04;;;;;;;12.55;8.70;;;;;;;-145.69;100.00;70801.50;5074126;28;20665;-78
2022/08/27 02:46:30;;;;;;;13.20;8.93;;;;;;;-145.69;100.00;70803.50;5074194;28;20202;-76
2022/08/27 02:48:57;;;;;;;19.98;8.57;;;;;;;-145.69;100.00;70805.47;5074199;28;20589;-78
2022/08/27 02:51:25;;;;;;;14.73;9.13;;;;;;;-145.69;100.00;70811.44;5074407;28;20202;-75
2022/08/27 02:53:51;;;;;;;14.23;9.07;;;;;;;-145.69;100.00;70803.50;5074320;28;20206;-76
2022/08/27 02:56:18;;;;;;;18.15;9.32;;;;;;;-145.69;100.00;70805.47;5073850;28;20203;-77
2022/08/27 02:58:45;;;;;;;16.50;9.18;;;;;;;-145.69;100.00;70805.47;5074064;28;20235;-78
2022/08/27 03:01:11;;;;;;;17.88;10.10;;;;;;;-145.69;100.00;70809.47;5073861;28;20202;-75
2022/08/27 03:03:38;;;;;;;16.45;9.90;;;;;;;-145.69;100.00;70803.50;5074267;28;20198;-77
2022/08/27 03:06:04;;;;;;;18.15;9.85;;;;;;;-145.69;100.00;70801.50;5073653;28;20202;-76
2022/08/27 03:08:32;;;;;;;15.55;10.05;;;;;;;-145.69;100.00;70801.50;5074040;28;20227;-77
2022/08/27 03:10:59;;;;;;;15.15;9.38;;;;;;;-145.69;100.00;70801.50;5073850;28;20195;-76
2022/08/27 03:13:27;;;;;;;14.02;9.32;;;;;;;-145.69;100.00;70805.47;5073829;28;20210;-77
2022/08/27 03:15:53;;;;;;;18.23;10.00;;;;;;;-145.69;100.00;70809.47;5073671;28;20653;-77
2022/08/27 03:18:21;;;;;;;16.45;10.25;;;;;;;-145.69;100.00;70817.41;5073890;28;20226;-76
2022/08/27 03:20:50;;;;;;;16.63;10.27;;;;;;;-145.69;100.00;70819.41;5073841;28;20204;-77
2022/08/27 03:23:18;;;;;;;16.95;10.45;;;;;;;-145.69;100.00;70815.44;5073449;28;20195;-77
2022/08/27 03:25:51;;;;;;;18.38;11.25;;;;;;;-145.69;100.00;70815.44;5073713;28;20207;-76
2022/08/27 03:28:18;;;;;;;16.83;10.18;;;;;;;-145.69;100.00;70821.41;5073450;28;20234;-77
2022/08/27 03:30:49;;;;;;;16.15;10.15;;;;;;;-145.69;100.00;70815.44;5073096;28;20217;-77
2022/08/27 03:33:16;;;;;;;20.83;10.98;;;;;;;-145.69;100.00;70817.41;5071583;28;20229;-75
2022/08/27 03:35:45;;;;;;;18.55;11.55;;;;;;;-145.69;100.00;70819.41;5072517;28;20282;-77
2022/08/27 03:38:11;;;;;;;22.17;12.45;;;;;;;-145.69;100.00;70817.41;5072800;28;20326;-76
2022/08/27 03:40:39;;;;;;;21.10;13.55;;;;;;;-145.69;100.00;70819.41;5073276;28;20573;-77
2022/08/27 03:43:07;;;;;;;17.80;10.85;;;;;;;-145.69;100.00;70821.41;5069893;28;20199;-76
2022/08/27 03:45:36;;;;;;;19.50;12.48;;;;;;;-145.69;100.00;70823.38;5073399;28;20286;-76
2022/08/27 03:48:05;;;;;;;18.85;11.18;;;;;;;-145.69;100.00;70823.38;5072855;28;20589;-76
2022/08/27 03:50:32;;;;;;;17.10;11.73;;;;;;;-145.69;100.00;70827.38;5072929;28;20198;-77
2022/08/27 03:52:58;;;;;;;21.20;13.20;;;;;;;-145.69;100.00;70817.41;5073156;28;20199;-76
2022/08/27 03:55:25;;;;;;;18.85;12.32;;;;;;;-145.69;100.00;70821.41;5073020;28;20565;-76
2022/08/27 03:57:51;;;;;;;22.35;13.52;;;;;;;-145.69;100.00;70817.41;5073182;28;20230;-76
2022/08/27 04:00:19;;;;;;;22.58;13.60;;;;;;;-145.69;100.00;70813.44;5073064;28;20295;-76
2022/08/27 04:02:46;;;;;;;24.13;13.95;;;;;;;-145.69;100.00;70817.41;5073088;28;20203;-75
2022/08/27 04:05:14;;;;;;;21.17;13.52;;;;;;;-145.69;100.00;70813.44;5072893;28;20202;-75
2022/08/27 04:07:41;;;;;;;27.33;14.93;;;;;;;-145.69;100.00;70805.47;5071676;28;20210;-75
2022/08/27 04:10:17;;;;;;;29.60;15.73;;;;;;;-145.69;100.00;70801.50;5054765;28;20208;-75
2022/08/27 04:12:44;;;;;;;28.48;16.42;;;;;;;-145.69;100.00;70793.53;5052956;28;20207;-77
2022/08/27 04:15:14;;;;;;;25.10;16.00;;;;;;;-145.69;100.00;70785.59;5052757;28;20195;-76
2022/08/27 04:17:42;;;;;;;28.42;16.42;;;;;;;-145.69;100.00;70785.59;5051977;28;20310;-76
2022/08/27 04:20:10;;;;;;;25.85;14.40;;;;;;;-145.69;100.00;70777.63;5065049;28;20198;-76
2022/08/27 04:22:38;;;;;;;16.77;11.15;;;;;;;-145.69;100.00;70781.59;5072616;28;20201;-75
2022/08/27 04:25:08;;;;;;;16.20;11.45;;;;;;;-145.69;100.00;70775.63;5072652;28;20275;-75
2022/08/27 04:27:35;;;;;;;23.02;13.77;;;;;;;-145.69;100.00;70773.66;5072905;28;20272;-75
2022/08/27 04:30:02;;;;;;;26.80;15.45;;;;;;;-145.69;100.00;70769.66;5072564;28;20207;-76
2022/08/27 04:32:30;;;;;;;17.45;11.68;;;;;;;-145.69;100.00;70771.66;5072631;28;20268;-75
2022/08/27 04:35:00;;;;;;;18.80;11.40;;;;;;;-145.69;100.00;70773.66;5072438;28;20205;-78
2022/08/27 04:37:31;;;;;;;17.58;10.55;;;;;;;-145.69;100.00;70773.66;5072496;28;20222;-78
2022/08/27 04:39:59;;;;;;;16.52;10.40;;;;;;;-145.69;100.00;70771.66;5072843;28;20208;-76
2022/08/27 04:42:25;;;;;;;17.35;10.55;;;;;;;-145.69;100.00;70773.66;5072683;28;20198;-76
2022/08/27 04:44:52;;;;;;;14.38;9.68;;;;;;;-145.69;100.00;70767.69;5072533;28;20225;-76
2022/08/27 04:47:19;;;;;;;21.73;12.07;;;;;;;-145.69;100.00;70765.69;5072219;28;20194;-76
2022/08/27 04:49:46;;;;;;;17.52;11.07;;;;;;;-145.69;100.00;70765.69;5072225;28;20642;-76
2022/08/27 04:52:14;;;;;;;18.13;10.38;;;;;;;-145.69;100.00;70765.69;5072574;28;20198;-76
2022/08/27 04:54:41;;;;;;;17.58;11.73;;;;;;;-145.69;100.00;70761.72;5072361;28;20195;-76
2022/08/27 04:57:08;;;;;;;19.08;12.05;;;;;;;-145.69;100.00;70755.75;5072397;28;20202;-76
2022/08/27 04:59:36;;;;;;;16.27;10.50;;;;;;;-145.69;100.00;70755.75;5072240;28;20293;-76
2022/08/27 05:02:02;;;;;;;15.55;10.50;;;;;;;-145.69;100.00;70751.75;5072315;28;20209;-76
2022/08/27 05:04:29;;;;;;;14.95;10.25;;;;;;;-145.69;100.00;70749.78;5071868;28;20650;-76
2022/08/27 05:06:56;;;;;;;17.83;10.93;;;;;;;-145.69;100.00;70745.78;5072267;28;20692;-75
2022/08/27 05:09:24;;;;;;;19.88;12.40;;;;;;;-145.69;100.00;70749.78;5072372;28;20210;-76
2022/08/27 05:11:52;;;;;;;20.73;12.15;;;;;;;-145.69;100.00;70743.81;5070788;28;20207;-76
2022/08/27 05:14:20;;;;;;;15.95;10.68;;;;;;;-145.69;100.00;70737.84;5071185;28;20249;-76
2022/08/27 05:16:47;;;;;;;14.90;9.70;;;;;;;-145.69;100.00;70731.88;5071975;28;20207;-76
2022/08/27 05:19:14;;;;;;;16.17;10.73;;;;;;;-145.69;100.00;70729.88;5071160;28;20215;-76
2022/08/27 05:21:46;;;;;;;19.67;12.18;;;;;;;-145.69;100.00;70727.88;5071586;28;20199;-75
2022/08/27 05:24:12;;;;;;;22.88;14.05;;;;;;;-145.69;100.00;70735.84;5071552;28;20658;-76
2022/08/27 05:26:40;;;;;;;23.92;15.10;;;;;;;-145.69;100.00;70741.81;5071839;28;20203;-76
2022/08/27 05:29:07;;;;;;;24.38;16.80;;;;;;;-145.69;100.00;70735.84;5074257;28;20289;-76
2022/08/27 05:31:35;;;;;;;28.77;15.68;;;;;;;-145.69;100.00;70729.88;5075177;28;20203;-76
2022/08/27 05:34:04;;;;;;;25.58;15.68;;;;;;;-145.69;100.00;70725.91;5074593;28;20206;-76
2022/08/27 05:36:33;;;;;;;27.65;16.88;;;;;;;-145.69;100.00;70735.84;5075654;28;20214;-76
2022/08/27 05:39:01;;;;;;;28.83;15.90;;;;;;;-145.69;100.00;70729.88;5075565;28;20317;-76
2022/08/27 05:41:30;;;;;;;24.40;15.82;;;;;;;-145.69;100.00;70741.81;5075451;28;20202;-76
2022/08/27 05:44:00;;;;;;;28.23;17.05;;;;;;;-145.69;100.00;70741.81;5075690;28;20198;-75
2022/08/27 05:46:27;;;;;;;27.92;17.08;;;;;;;-145.69;100.00;70755.75;5075090;28;20653;-77
2022/08/27 05:48:57;;;;;;;30.13;18.50;;;;;;;-145.69;100.00;70763.69;5073982;28;20237;-76
2022/08/27 05:51:27;;;;;;;31.67;18.08;;;;;;;-145.69;100.00;70765.69;5075272;28;20203;-76
2022/08/27 05:53:55;;;;;;;32.22;17.33;;;;;;;-145.69;100.00;70763.69;5075361;28;20281;-76
2022/08/27 05:56:24;;;;;;;31.02;18.70;;;;;;;-145.69;100.00;70753.75;5075166;28;20205;-76
2022/08/27 06:01:38;;;;;;;35.60;21.05;;;;;;;-145.69;100.00;70765.69;5075150;28;20206;-75
2022/08/27 06:04:05;;;;;;;34.63;20.63;;;;;;;-145.69;100.00;70769.66;5066185;28;20207;-75
2022/08/27 06:06:35;;;;;;;32.28;20.75;;;;;;;-145.69;100.00;70759.72;5054946;28;20661;-75
2022/08/27 06:09:01;;;;;;;35.72;20.55;;;;;;;-145.69;100.00;70757.72;5055210;28;20204;-76
2022/08/27 06:11:28;;;;;;;32.58;19.40;;;;;;;-145.69;100.00;70755.75;5054997;28;20204;-76
2022/08/27 06:13:55;;;;;;;35.72;20.95;;;;;;;-145.69;100.00;70753.75;5054996;28;20679;-78
2022/08/27 06:16:21;;;;;;;34.53;19.42;;;;;;;-145.69;100.00;70759.72;5067440;28;20202;-76
2022/08/27 06:18:49;;;;;;;40.88;20.88;;;;;;;-145.69;100.00;70765.69;5074857;28;20233;-76
2022/08/27 06:21:18;;;;;;;33.42;20.65;;;;;;;-145.69;100.00;70759.72;5074615;28;20218;-76
2022/08/27 06:23:46;;;;;;;33.13;19.58;;;;;;;-145.69;100.00;70769.66;5074839;28;20207;-76
2022/08/27 06:26:17;;;;;;;35.72;20.30;;;;;;;-145.69;100.00;70777.63;5074590;28;20671;-76
2022/08/27 06:28:44;;;;;;;36.20;21.73;;;;;;;-145.69;100.00;70789.56;5074679;28;20256;-76
2022/08/27 06:31:13;;;;;;;26.88;17.52;;;;;;;-145.69;100.00;70789.56;5074565;28;20199;-76
2022/08/27 06:33:41;;;;;;;39.15;19.35;;;;;;;-145.69;100.00;70789.56;5074589;28;20249;-76
2022/08/27 06:36:11;;;;;;;28.17;15.27;;;;;;;-145.69;100.00;70793.53;5074673;28;20206;-76
2022/08/27 06:38:38;;;;;;;23.48;13.85;;;;;;;-145.69;100.00;70789.56;5074490;28;20724;-74
2022/08/27 06:41:06;;;;;;;26.58;15.23;;;;;;;-145.69;100.00;70791.56;5073566;28;20565;-75
2022/08/27 06:43:35;;;;;;;25.98;14.65;;;;;;;-145.69;100.00;70789.56;5074470;28;20206;-75
2022/08/27 06:46:03;;;;;;;31.33;16.38;;;;;;;-145.69;100.00;70791.56;5073708;28;20226;-75
2022/08/27 06:48:30;;;;;;;40.10;20.90;;;;;;;-145.69;100.00;70801.50;5074032;28;20227;-75
2022/08/27 06:50:56;;;;;;;50.72;23.38;;;;;;;-145.69;100.00;70791.56;5074318;28;20203;-75
2022/08/27 06:53:25;;;;;;;49.42;25.17;;;;;;;-145.69;100.00;70791.56;5074172;28;20199;-75
2022/08/27 06:55:52;;;;;;;47.42;24.27;;;;;;;-145.69;100.00;70783.59;5074030;28;20199;-75
2022/08/27 06:58:19;;;;;;;49.20;23.73;;;;;;;-145.69;100.00;70773.66;5074000;28;20776;-75
2022/08/27 07:00:46;;;;;;;54.55;26.55;;;;;;;-145.69;100.00;70773.66;5073676;28;20199;-75
2022/08/27 07:03:12;;;;;;;60.85;29.13;;;;;;;-145.69;100.00;70757.72;5073920;28;20198;-76
2022/08/27 07:05:40;;;;;;;62.22;28.42;;;;;;;-145.69;100.00;70753.75;5073658;28;20645;-76
2022/08/27 07:08:08;;;;;;;51.22;26.35;;;;;;;-145.69;100.00;70753.75;5073816;28;20205;-76
2022/08/27 07:10:36;;;;;;;48.03;23.80;;;;;;;-145.69;100.00;70763.69;5073865;28;20202;-76
2022/08/27 07:13:03;;;;;;;48.85;25.85;;;;;;;-145.69;100.00;70761.72;5073933;28;20210;-76
2022/08/27 07:15:30;;;;;;;57.75;24.98;;;;;;;-145.69;100.00;70759.72;5073604;28;20511;-76
2022/08/27 07:17:57;;;;;;;53.80;27.35;;;;;;;-145.69;100.00;70759.72;5073207;28;20205;-76
2022/08/27 07:20:25;;;;;;;58.03;28.25;;;;;;;-145.69;100.00;70727.88;5071533;28;20289;-76
2022/08/27 07:22:57;;;;;;;49.80;24.90;;;;;;;-145.69;100.00;70709.97;5073131;28;20233;-75
2022/08/27 07:25:23;;;;;;;40.65;22.33;;;;;;;-145.69;100.00;70690.09;5072765;28;20201;-76
2022/08/27 07:27:52;;;;;;;47.53;24.85;;;;;;;-145.69;100.00;70670.19;5073524;28;20195;-76
2022/08/27 07:30:18;;;;;;;38.58;22.55;;;;;;;-145.69;100.00;70674.16;5073209;28;20564;-76
2022/08/27 07:32:46;;;;;;;42.53;22.10;;;;;;;-145.69;100.00;70670.19;5072659;28;20206;-75
2022/08/27 07:35:13;;;;;;;38.75;21.58;;;;;;;-145.69;100.00;70666.22;5073270;28;20225;-75
2022/08/27 07:37:41;;;;;;;39.33;22.58;;;;;;;-145.69;100.00;70638.34;5072445;28;20680;-75
2022/08/27 07:40:10;;;;;;;36.28;21.75;;;;;;;-145.69;100.00;70642.34;5072795;28;20322;-75
2022/08/27 07:45:22;;;;;;;38.35;21.58;;;;;;;-145.69;100.00;70656.25;5072257;28;20198;-76
2022/08/27 07:47:50;;;;;;;36.83;22.17;;;;;;;-145.69;100.00;70648.31;5073045;28;20223;-75
2022/08/27 07:50:16;;;;;;;36.88;21.75;;;;;;;-145.69;100.00;70630.41;5073195;28;20203;-76
2022/08/27 07:52:43;;;;;;;36.60;21.45;;;;;;;-145.69;100.00;70640.34;5073093;28;20203;-75
2022/08/27 07:55:10;;;;;;;39.83;22.48;;;;;;;-145.69;100.00;70642.34;5070948;28;20207;-76
2022/08/27 07:57:36;;;;;;;36.08;20.60;;;;;;;-145.69;100.00;70622.44;5068537;28;20195;-77
2022/08/27 08:00:04;;;;;;;35.50;21.60;;;;;;;-145.69;100.00;70602.56;5072435;28;20234;-78
2022/08/27 08:02:33;;;;;;;40.50;21.70;;;;;;;-145.69;100.00;70618.47;5070172;28;20199;-77
2022/08/27 08:05:00;;;;;;;45.45;22.88;;;;;;;-145.69;100.00;70636.38;5072828;28;20194;-76
2022/08/27 08:07:27;;;;;;;39.25;22.00;;;;;;;-145.69;100.00;70622.44;5073029;28;20198;-76
2022/08/27 08:09:54;;;;;;;36.00;20.38;;;;;;;-145.69;100.00;70574.69;5072924;28;20622;-76
2022/08/27 08:12:20;;;;;;;36.25;22.05;;;;;;;-145.69;100.00;70586.63;5072543;28;20203;-76
2022/08/27 08:14:47;;;;;;;40.28;22.42;;;;;;;-145.69;100.00;70586.63;5072767;28;20209;-76
2022/08/27 08:17:14;;;;;;;33.95;19.85;;;;;;;-145.69;100.00;70550.81;5072982;28;20198;-76
2022/08/27 08:19:42;;;;;;;31.30;19.73;;;;;;;-145.69;100.00;70542.88;5072592;28;20715;-77
2022/08/27 08:22:09;;;;;;;33.97;19.60;;;;;;;-145.69;100.00;70550.81;5072803;28;20209;-77
2022/08/27 08:24:35;;;;;;;31.55;17.92;;;;;;;-145.69;100.00;70519.00;5072994;28;20198;-76
2022/08/27 08:27:02;;;;;;;32.17;18.52;;;;;;;-145.69;100.00;70528.94;5072772;28;20564;-76
2022/08/27 08:29:28;;;;;;;28.90;18.00;;;;;;;-145.69;100.00;70495.13;5072318;28;20198;-76
2022/08/27 08:31:55;;;;;;;30.98;17.05;;;;;;;-145.69;100.00;70497.09;5072797;28;20566;-76
2022/08/27 08:34:21;;;;;;;28.45;17.55;;;;;;;-145.69;100.00;70526.94;5072694;28;20198;-77
2022/08/27 08:36:49;;;;;;;25.10;15.43;;;;;;;-145.69;100.00;70475.22;5072851;28;20241;-77
2022/08/27 08:39:18;;;;;;;23.92;15.57;;;;;;;-145.69;100.00;70465.28;5072777;28;20608;-76
2022/08/27 08:41:50;;;;;;;24.80;15.68;;;;;;;-145.69;100.00;70491.13;5072892;28;20207;-76
2022/08/27 08:44:32;;;;;;;29.08;16.25;;;;;;;-145.69;100.00;70505.06;5072463;28;20292;-76
2022/08/27 08:47:05;;;;;;;24.50;15.30;;;;;;;-145.69;100.00;70443.41;5072642;28;20202;-76
2022/08/27 08:49:46;;;;;;;26.08;15.85;;;;;;;-145.69;100.00;70397.63;5072440;28;20229;-75
2022/08/27 08:52:25;;;;;;;25.33;16.20;;;;;;;-145.69;100.00;70419.53;5072728;28;20201;-76
2022/08/27 08:54:55;;;;;;;25.60;15.35;;;;;;;-145.69;100.00;70407.59;5072348;28;20202;-75
2022/08/27 08:57:27;;;;;;;25.67;15.77;;;;;;;-145.69;100.00;70455.34;5072116;28;20209;-76
2022/08/27 09:00:01;;;;;;;25.45;15.88;;;;;;;-145.69;100.00;70419.53;5072673;28;20226;-75
2022/08/27 09:02:27;;;;;;;23.23;13.80;;;;;;;-145.69;100.00;70411.56;5072551;28;20654;-75
2022/08/27 09:05:05;;;;;;;25.08;14.50;;;;;;;-145.69;100.00;70411.56;5076031;28;20201;-75
2022/08/27 09:07:44;;;;;;;22.55;13.85;;;;;;;-145.69;100.00;70409.56;5076433;28;20198;-75
2022/08/27 09:10:20;;;;;;;21.58;13.35;;;;;;;-145.69;100.00;70397.63;5076437;28;20206;-76
2022/08/27 09:12:47;;;;;;;19.50;13.15;;;;;;;-145.69;100.00;70377.75;5076261;28;20687;-76
2022/08/27 09:15:16;;;;;;;23.35;13.73;;;;;;;-145.69;100.00;70332.00;5076220;28;20199;-76
2022/08/27 09:17:44;;;;;;;16.88;11.63;;;;;;;-145.69;100.00;70312.09;5076263;28;20221;-76
2022/08/27 09:20:17;;;;;;;19.25;12.20;;;;;;;-145.69;100.00;70300.16;5076074;28;20236;-76
2022/08/27 09:22:53;;;;;;;18.23;11.82;;;;;;;-145.69;100.00;70278.28;5075981;28;20207;-76
2022/08/27 09:25:25;;;;;;;19.38;12.38;;;;;;;-145.69;97.90;70284.25;5076178;28;20237;-76
2022/08/27 09:27:54;;;;;;;20.73;12.57;;;;;;;-145.69;96.72;70268.34;5075992;28;20203;-75
2022/08/27 09:30:24;;;;;;;20.67;11.90;;;;;;;-145.69;100.00;70284.25;5075758;28;20199;-76
2022/08/27 09:32:57;;;;;;;16.45;11.18;;;;;;;-145.69;96.58;70260.38;5075501;28;20335;-76
2022/08/27 09:35:25;;;;;;;16.20;9.13;;;;;;;-145.69;92.20;70184.78;5075988;28;20207;-76
2022/08/27 09:37:56;;;;;;;18.50;11.20;;;;;;;-145.69;93.72;70218.59;5075787;28;20286;-76
2022/08/27 09:40:27;;;;;;;17.73;10.95;;;;;;;-145.69;90.62;70232.53;5075749;28;20317;-76
2022/08/27 09:42:57;;;;;;;18.33;10.60;;;;;;;-145.69;90.88;70200.69;5075571;28;20207;-75
2022/08/27 09:45:26;;;;;;;17.55;10.15;;;;;;;-145.69;92.08;70176.81;5074080;28;20199;-76
2022/08/27 09:47:55;;;;;;;14.57;10.30;;;;;;;-145.69;87.70;70158.94;5075187;28;20233;-75
2022/08/27 09:50:24;;;;;;;16.63;9.65;;;;;;;-145.69;85.10;70115.16;5075774;28;20546;-76
2022/08/27 09:52:55;;;;;;;15.73;9.80;;;;;;;-145.69;84.68;70097.25;5075110;28;20207;-76
2022/08/27 09:55:30;;;;;;;18.92;10.35;;;;;;;-145.69;87.51;70085.31;5075524;28;20202;-75
2022/08/27 09:57:58;;;;;;;15.98;9.23;;;;;;;-145.69;86.85;70105.22;5075172;28;20213;-76
2022/08/27 10:00:35;;;;;;;23.40;12.05;;;;;;;-145.69;94.54;70250.44;5074725;28;20226;-75
2022/08/27 10:03:02;;;;;;;18.15;11.35;;;;;;;-145.69;94.10;70226.56;5073630;28;20238;-76
2022/08/27 10:05:32;;;;;;;17.33;11.05;;;;;;;-145.69;92.60;70196.72;5075251;28;20257;-75
2022/08/27 10:08:03;;;;;;;20.25;11.57;;;;;;;-145.69;98.53;70284.25;5075237;28;20252;-76
2022/08/27 10:10:42;;;;;;;18.38;11.13;;;;;;;-145.69;92.84;70216.63;5075086;28;20207;-76
2022/08/27 10:13:15;;;;;;;15.52;10.88;;;;;;;-145.69;92.03;70168.88;5075125;28;20198;-76
2022/08/27 10:15:53;;;;;;;20.90;11.05;;;;;;;-145.69;90.72;70168.88;5073950;28;20233;-75
2022/08/27 10:18:27;;;;;;;19.88;11.23;;;;;;;-145.69;92.80;70190.75;5075085;28;20198;-75
2022/08/27 10:21:03;;;;;;;15.95;11.13;;;;;;;-145.69;96.63;70238.50;5074880;28;20578;-75
2022/08/27 10:23:40;;;;;;;17.42;10.60;;;;;;;-145.69;94.78;70210.66;5060852;28;20687;-76
2022/08/27 10:26:14;;;;;;;19.33;11.48;;;;;;;-145.69;89.47;70168.88;5074690;28;20200;-76
2022/08/27 10:28:55;;;;;;;14.52;9.73;;;;;;;-145.69;87.24;70133.06;5074954;28;20601;-75
2022/08/27 10:31:31;;;;;;;19.77;11.50;;;;;;;-145.69;91.25;70150.97;5075063;28;20206;-76
2022/08/27 10:34:15;;;;;;;18.75;11.90;;;;;;;-145.69;89.44;70095.28;5074900;28;20234;-75
2022/08/27 10:36:51;;;;;;;19.10;10.35;;;;;;;-145.69;90.69;70041.56;5074618;28;20652;-75
2022/08/27 10:39:26;;;;;;;16.88;10.55;;;;;;;-145.69;85.58;69989.84;5074502;28;20228;-75
2022/08/27 10:42:14;;;;;;;22.40;10.82;;;;;;;-145.69;82.97;69954.03;5074333;28;20579;-76
2022/08/27 10:44:53;;;;;;;16.85;10.40;;;;;;;-145.69;78.51;69910.28;5074414;28;20293;-75
2022/08/27 10:47:36;;;;;;;16.52;10.20;;;;;;;-145.69;78.70;69946.09;5074090;28;20263;-75
2022/08/27 10:50:06;;;;;;;17.95;9.98;;;;;;;-145.69;77.96;69973.94;5074292;28;20206;-75
2022/08/27 10:52:43;;;;;;;15.93;10.05;;;;;;;-145.69;84.19;70089.31;5074285;28;20323;-75
2022/08/27 10:55:21;;;;;;;20.85;12.43;;;;;;;-145.69;87.48;70158.94;5074276;28;20573;-75
2022/08/27 10:58:04;;;;;;;15.90;11.02;;;;;;;-145.69;82.28;70055.47;5074202;28;20272;-75
2022/08/27 11:00:40;;;;;;;15.65;10.57;;;;;;;-145.69;82.99;70029.63;5074190;28;20313;-75
2022/08/27 11:03:12;;;;;;;17.35;10.57;;;;;;;-145.69;82.60;70057.47;5074132;28;20198;-75
2022/08/27 11:05:45;;;;;;;18.45;10.95;;;;;;;-145.69;83.68;70053.50;5074220;28;20285;-75
2022/08/27 11:08:17;;;;;;;16.50;10.63;;;;;;;-145.69;87.21;70121.13;5074108;28;20298;-75
2022/08/27 11:10:51;;;;;;;19.55;10.93;;;;;;;-145.69;91.62;70186.78;5073843;28;20721;-76